Bellevue, Wisconsin
Current Conditions -  °F | °C
As of 11:53 AM on Thursday 30 Oct 2014 (Local Time) from KGRB Reporting Station
Overcast Overcast  
Wind Chill: 40°   Ceiling: 10000
Heat Index: 45°   Visibility: NA
Dew Point: 35°   Wind: 9mph
Humidity: 68%   Direction: 260°W
Pressure: 30.07"   Gusts: NA
Location:  44.4827°N, 87.887°W
Report Text: KGRB 301653Z 26008KT OVC100 07/02 A3007 RMK AO2 SLP188 T00720017 RVRNO $
Loading
Personal Weather Stations






























Interactive Weather Map
Tropical Storm Tracking
New forecast layout! Learn more

10-Day Weather Forecast

Advertisements
Track Severe Weather on mobile